EDLW

Dortmund Airport

Dortmund, Germany
TAF EDLW 261100Z 2612/2712 24013KT 9999 SCT035 PROB40 TEMPO 2612/2618 27015G25KT SHRA BKN020CB BECMG 2618/2621 24008KT BECMG 2621/2624 18007KT
Issued Valid From Valid To
Apr-26 @ 11:00 UTC
(3 hours ago)
Apr-26 @ 12:00 UTC
(2 hours ago)
Apr-27 @ 12:00 UTC
(in 22 hours)
Apr-26 @ 12:00 to Apr-26 @ 18:00
TAF EDLW 261100Z 2612/2712 24013KT 9999 SCT035
Wind Visibility Clouds
240° at 13 knots 10,000+ meters
  • Scattered at 3,500' AGL
Temporary  (Probability 40%) Apr-26 @ 12:00 to Apr-26 @ 18:00
PROB40 TEMPO 2612/2618 27015G25KT SHRA BKN020CB
Wind Clouds Conditions
270° at 15 knots
 Gusting to 25 knots
  • Broken at 2,000' AGL
  • Rain
Becoming Apr-26 @ 18:00 to Apr-26 @ 21:00
BECMG 2618/2621 24008KT
Wind Visibility Clouds
240° at 8 knots 10,000+ meters
  • Scattered at 3,500' AGL
Becoming Apr-26 @ 21:00 to Apr-27 @ 12:00
BECMG 2621/2624 18007KT
Wind Visibility Clouds
180° at 7 knots 10,000+ meters
  • Scattered at 3,500' AGL
TAF EDLW 261100Z 2612/2712 24013KT 9999 SCT035 PROB40 TEMPO 2612/2618 27015G25KT SHRA BKN020CB BECMG 2618/2621 24008KT BECMG 2621/2624 18007KT
Issued Apr-26 @ 11:00 UTC
(3 hours ago)
Valid From Apr-26 @ 12:00 UTC
(2 hours ago)
Valid To Apr-27 @ 12:00 UTC
(in 22 hours)
Apr-26 @ 12:00 - Apr-26 @ 18:00
Wind Visibility
240° at 13 knots 10,000+ meters
Clouds
  • Scattered at 3,500' AGL
Probability 40% Temporary Apr-26 @ 12:00 - Apr-26 @ 18:00
Wind
270° at 15 knots
 Gusting to 25 knots
Clouds
  • Broken at 2,000' AGL
Conditions
  • Rain
Becoming Apr-26 @ 18:00 - Apr-26 @ 21:00
Wind Visibility
240° at 8 knots 10,000+ meters
Clouds
  • Scattered at 3,500' AGL
Becoming Apr-26 @ 21:00 - Apr-27 @ 12:00
Wind Visibility
180° at 7 knots 10,000+ meters
Clouds
  • Scattered at 3,500' AGL